createdAt,value
2023-02-12T00:00:03.295Z,165.7
2023-02-12T00:05:01.686Z,168.3
2023-02-12T00:10:02.406Z,167.3
2023-02-12T00:15:01.830Z,172.2
2023-02-12T00:20:01.524Z,178.2
2023-02-12T00:25:01.670Z,185.4
2023-02-12T00:30:01.540Z,186.6
2023-02-12T00:35:01.559Z,187.9
2023-02-12T00:40:01.505Z,186.3
2023-02-12T00:45:01.587Z,176.9
2023-02-12T00:50:01.509Z,173.0
2023-02-12T00:55:01.625Z,168.9
2023-02-12T01:00:01.483Z,167.7
2023-02-12T01:05:01.918Z,167.1
2023-02-12T01:10:01.942Z,167.4
2023-02-12T01:15:01.793Z,161.5
2023-02-12T01:20:01.904Z,153.8
2023-02-12T01:25:01.758Z,146.5
2023-02-12T01:30:01.526Z,140.4
2023-02-12T01:35:01.634Z,136.0
2023-02-12T01:40:01.486Z,134.8
2023-02-12T01:45:01.595Z,133.5
2023-02-12T02:00:01.309Z,146.4
2023-02-12T02:05:00.902Z,140.4
2023-02-12T02:10:00.771Z,136.1
2023-02-12T02:15:00.967Z,133.6
2023-02-12T02:20:00.864Z,138.8
2023-02-12T02:40:02.612Z,177.4
2023-02-12T02:45:01.678Z,159.5
2023-02-12T02:50:01.506Z,153.5
2023-02-12T02:55:05.086Z,154.5
2023-02-12T03:20:01.772Z,127.8
2023-02-12T03:25:01.585Z,140.4
2023-02-12T03:30:01.197Z,141.5
2023-02-12T03:35:01.190Z,150.2
2023-02-12T03:40:01.157Z,148.0
2023-02-12T04:00:00.918Z,121.8
2023-02-12T04:05:01.444Z,129.9
2023-02-12T04:10:00.814Z,131.2
2023-02-12T04:15:00.948Z,132.9
2023-02-12T04:20:00.841Z,139.7
2023-02-12T04:25:01.098Z,148.0
2023-02-12T04:30:00.849Z,147.7
2023-02-12T04:35:00.953Z,143.6
2023-02-12T04:40:00.851Z,145.6
2023-02-12T04:45:00.947Z,136.5
2023-02-12T04:50:00.822Z,130.8
2023-02-12T04:55:00.916Z,131.9
2023-02-12T05:00:00.865Z,139.6
2023-02-12T05:05:01.996Z,143.3
2023-02-12T05:10:00.848Z,151.1
2023-02-12T05:15:00.969Z,154.2
2023-02-12T05:20:00.838Z,161.1
2023-02-12T05:25:00.898Z,158.3
2023-02-12T05:30:00.872Z,151.0
2023-02-12T05:35:00.899Z,143.2
2023-02-12T05:45:05.892Z,121.4
2023-02-12T05:50:00.827Z,115.7
2023-02-12T05:55:00.911Z,110.7
2023-02-12T06:00:01.129Z,107.6
2023-02-12T06:05:00.938Z,110.0
2023-02-12T06:10:00.896Z,112.5
2023-02-12T06:15:00.969Z,111.6
2023-02-12T06:20:00.884Z,115.0
2023-02-12T06:25:00.980Z,117.4
2023-02-12T06:30:01.438Z,116.8
2023-02-12T06:35:00.935Z,114.6
2023-02-12T06:40:00.793Z,114.0
2023-02-12T06:45:00.924Z,109.9
2023-02-12T06:50:01.816Z,106.4
2023-02-12T06:55:00.864Z,102.3
2023-02-12T07:00:00.872Z,101.5
2023-02-12T07:05:00.952Z,101.2
2023-02-12T07:10:00.794Z,103.6
2023-02-12T07:15:00.928Z,120.2
2023-02-12T07:20:00.804Z,122.4
2023-02-12T07:25:00.894Z,125.8
2023-02-12T07:30:01.076Z,129.5
2023-02-12T09:50:01.263Z,102.6
2023-02-12T11:10:02.102Z,92.4
2023-02-12T11:30:02.063Z,94.4
2023-02-12T11:35:01.615Z,92.3
2023-02-12T11:40:01.546Z,94.3
2023-02-12T11:45:01.618Z,94.4
2023-02-12T11:55:01.632Z,96.9
2023-02-12T12:00:01.531Z,98.7
2023-02-12T12:05:01.674Z,101.2
2023-02-12T12:10:01.523Z,101.8
2023-02-12T12:15:01.680Z,102.6
2023-02-12T12:20:06.892Z,103.1
2023-02-12T12:25:01.589Z,104.7
2023-02-12T12:30:01.518Z,101.6
2023-02-12T12:35:02.688Z,100.2
2023-02-12T12:40:02.538Z,98.1
2023-02-12T13:00:03.285Z,98.2
2023-02-12T13:05:01.740Z,97.1
2023-02-12T13:10:01.765Z,99.4
2023-02-12T13:30:01.315Z,95.6
2023-02-12T13:50:00.947Z,87.0
2023-02-12T15:10:01.154Z,91.0
2023-02-12T15:15:01.042Z,90.7
2023-02-12T18:50:02.736Z,179.4
2023-02-12T18:55:01.601Z,174.2
2023-02-12T19:05:01.537Z,173.2
2023-02-12T19:10:01.698Z,171.8
2023-02-12T19:15:01.629Z,173.7
2023-02-12T19:20:01.511Z,172.6
2023-02-12T19:25:01.580Z,169.8
2023-02-12T19:30:01.559Z,170.0
2023-02-12T19:35:01.595Z,167.4
2023-02-12T19:40:01.560Z,164.0
2023-02-12T19:45:02.138Z,156.9
2023-02-12T19:50:02.001Z,159.4
2023-02-12T19:55:01.596Z,158.5
2023-02-12T20:00:01.555Z,161.4
2023-02-12T20:05:01.614Z,160.2
2023-02-12T20:15:01.710Z,170.7
2023-02-12T20:20:01.630Z,168.4
2023-02-12T20:25:01.618Z,165.8
2023-02-12T20:30:01.560Z,161.8
2023-02-12T20:35:02.734Z,160.2
2023-02-12T20:40:01.707Z,159.2
2023-02-12T20:45:01.705Z,162.2
2023-02-12T20:50:01.612Z,166.1
2023-02-12T20:55:02.075Z,172.0
2023-02-12T21:00:01.622Z,176.2
2023-02-12T21:05:01.678Z,181.4
2023-02-12T21:10:01.587Z,184.4
2023-02-12T21:15:01.734Z,193.4
2023-02-12T21:20:01.639Z,209.1
2023-02-12T21:25:01.966Z,216.1
2023-02-12T21:30:01.503Z,226.6
2023-02-12T21:35:01.521Z,234.4
2023-02-12T21:40:01.450Z,237.6
2023-02-12T21:45:01.959Z,230.3
2023-02-12T21:50:01.422Z,227.2
2023-02-12T21:55:01.613Z,220.4
2023-02-12T22:05:01.548Z,220.8
2023-02-12T22:10:01.498Z,209.6
2023-02-12T22:15:01.671Z,195.8
2023-02-12T22:20:01.456Z,182.2
2023-02-12T22:25:01.569Z,171.9
2023-02-12T22:30:01.417Z,136.3
2023-02-12T22:35:01.606Z,124.8
2023-02-12T22:40:06.400Z,117.7
2023-02-12T22:45:01.522Z,116.8
2023-02-12T22:50:01.424Z,113.8
2023-02-12T22:55:01.734Z,109.7
2023-02-12T23:00:01.373Z,110.8
2023-02-12T23:05:06.442Z,108.5
2023-02-12T23:10:01.415Z,100.1
2023-02-12T23:15:01.865Z,99.8
2023-02-12T23:20:01.438Z,99.1
2023-02-12T23:30:01.414Z,96.9
2023-02-12T23:35:02.525Z,97.1
2023-02-12T23:40:01.447Z,98.0
2023-02-12T23:45:01.465Z,98.4
2023-02-12T23:50:06.427Z,98.9
2023-02-12T23:55:06.676Z,100.4
